sensor_id;sensor_type;location;lat;lon;timestamp;P1;durP1;ratioP1;P2;durP2;ratioP2
68216;SDS011;55037;52.354;4.992;2023-02-23T00:03:53;141.63;;;50.88;;
68216;SDS011;55037;52.354;4.992;2023-02-23T00:06:22;150.00;;;51.40;;
68216;SDS011;55037;52.354;4.992;2023-02-23T00:08:54;136.75;;;50.45;;
68216;SDS011;55037;52.354;4.992;2023-02-23T00:11:21;146.80;;;50.90;;
68216;SDS011;55037;52.354;4.992;2023-02-23T00:13:49;152.52;;;52.05;;
68216;SDS011;55037;52.354;4.992;2023-02-23T00:16:18;145.27;;;51.33;;
68216;SDS011;55037;52.354;4.992;2023-02-23T00:18:48;149.45;;;52.20;;
68216;SDS011;55037;52.354;4.992;2023-02-23T00:21:21;141.17;;;50.33;;
68216;SDS011;55037;52.354;4.992;2023-02-23T00:23:51;167.13;;;53.45;;
68216;SDS011;55037;52.354;4.992;2023-02-23T00:26:24;136.18;;;51.05;;
68216;SDS011;55037;52.354;4.992;2023-02-23T00:28:56;143.32;;;51.78;;
68216;SDS011;55037;52.354;4.992;2023-02-23T00:31:24;142.27;;;51.03;;
68216;SDS011;55037;52.354;4.992;2023-02-23T00:33:53;162.90;;;52.97;;
68216;SDS011;55037;52.354;4.992;2023-02-23T00:36:24;144.35;;;51.65;;
68216;SDS011;55037;52.354;4.992;2023-02-23T00:38:54;181.87;;;54.40;;
68216;SDS011;55037;52.354;4.992;2023-02-23T00:41:25;161.55;;;53.42;;
68216;SDS011;55037;52.354;4.992;2023-02-23T00:43:59;163.93;;;54.22;;
68216;SDS011;55037;52.354;4.992;2023-02-23T00:46:27;173.30;;;54.60;;
68216;SDS011;55037;52.354;4.992;2023-02-23T00:48:57;172.70;;;54.35;;
68216;SDS011;55037;52.354;4.992;2023-02-23T00:51:26;180.15;;;54.80;;
68216;SDS011;55037;52.354;4.992;2023-02-23T00:53:58;175.30;;;55.42;;
68216;SDS011;55037;52.354;4.992;2023-02-23T00:56:26;169.82;;;53.92;;
68216;SDS011;55037;52.354;4.992;2023-02-23T00:58:53;174.40;;;54.53;;
68216;SDS011;55037;52.354;4.992;2023-02-23T01:01:22;178.23;;;56.10;;
68216;SDS011;55037;52.354;4.992;2023-02-23T01:03:50;165.02;;;54.03;;
68216;SDS011;55037;52.354;4.992;2023-02-23T01:06:18;180.00;;;54.80;;
68216;SDS011;55037;52.354;4.992;2023-02-23T01:08:47;167.13;;;54.00;;
68216;SDS011;55037;52.354;4.992;2023-02-23T01:11:17;174.20;;;54.90;;
68216;SDS011;55037;52.354;4.992;2023-02-23T01:13:51;182.43;;;55.35;;
68216;SDS011;55037;52.354;4.992;2023-02-23T01:16:20;145.33;;;52.90;;
68216;SDS011;55037;52.354;4.992;2023-02-23T01:18:52;165.23;;;53.92;;
68216;SDS011;55037;52.354;4.992;2023-02-23T01:21:25;166.05;;;53.55;;
68216;SDS011;55037;52.354;4.992;2023-02-23T01:23:54;158.63;;;53.42;;
68216;SDS011;55037;52.354;4.992;2023-02-23T01:26:26;152.30;;;52.05;;
68216;SDS011;55037;52.354;4.992;2023-02-23T01:29:04;167.95;;;54.20;;
68216;SDS011;55037;52.354;4.992;2023-02-23T01:31:38;173.23;;;54.95;;
68216;SDS011;55037;52.354;4.992;2023-02-23T01:34:08;192.88;;;57.78;;
68216;SDS011;55037;52.354;4.992;2023-02-23T01:36:40;165.02;;;53.47;;
68216;SDS011;55037;52.354;4.992;2023-02-23T01:39:10;174.20;;;54.77;;
68216;SDS011;55037;52.354;4.992;2023-02-23T01:41:43;166.47;;;54.30;;
68216;SDS011;55037;52.354;4.992;2023-02-23T01:46:44;165.13;;;54.60;;
68216;SDS011;55037;52.354;4.992;2023-02-23T01:49:13;157.77;;;52.00;;
68216;SDS011;55037;52.354;4.992;2023-02-23T01:51:48;154.50;;;52.57;;
68216;SDS011;55037;52.354;4.992;2023-02-23T01:54:18;151.98;;;52.53;;
68216;SDS011;55037;52.354;4.992;2023-02-23T01:56:50;163.10;;;53.40;;
68216;SDS011;55037;52.354;4.992;2023-02-23T01:59:25;154.52;;;52.08;;
68216;SDS011;55037;52.354;4.992;2023-02-23T02:01:59;158.38;;;52.63;;
68216;SDS011;55037;52.354;4.992;2023-02-23T02:04:31;138.00;;;51.80;;
68216;SDS011;55037;52.354;4.992;2023-02-23T02:07:20;169.43;;;53.78;;
68216;SDS011;55037;52.354;4.992;2023-02-23T02:09:53;181.87;;;54.23;;
68216;SDS011;55037;52.354;4.992;2023-02-23T02:12:38;170.30;;;54.10;;
68216;SDS011;55037;52.354;4.992;2023-02-23T02:15:17;152.70;;;52.57;;
68216;SDS011;55037;52.354;4.992;2023-02-23T02:17:55;161.03;;;53.03;;
68216;SDS011;55037;52.354;4.992;2023-02-23T02:25:55;174.50;;;55.65;;
68216;SDS011;55037;52.354;4.992;2023-02-23T02:37:38;171.43;;;55.95;;
68216;SDS011;55037;52.354;4.992;2023-02-23T02:40:44;179.75;;;55.20;;
68216;SDS011;55037;52.354;4.992;2023-02-23T02:43:25;175.68;;;56.72;;
68216;SDS011;55037;52.354;4.992;2023-02-23T02:46:10;179.17;;;55.83;;
68216;SDS011;55037;52.354;4.992;2023-02-23T02:51:38;195.35;;;57.33;;
68216;SDS011;55037;52.354;4.992;2023-02-23T02:54:22;159.73;;;55.77;;
68216;SDS011;55037;52.354;4.992;2023-02-23T02:56:56;180.70;;;56.75;;
68216;SDS011;55037;52.354;4.992;2023-02-23T02:59:26;170.40;;;56.72;;
68216;SDS011;55037;52.354;4.992;2023-02-23T03:02:13;176.90;;;53.38;;
68216;SDS011;55037;52.354;4.992;2023-02-23T03:05:10;180.93;;;55.47;;
68216;SDS011;55037;52.354;4.992;2023-02-23T03:08:08;175.88;;;55.90;;
68216;SDS011;55037;52.354;4.992;2023-02-23T03:11:13;209.05;;;59.17;;
68216;SDS011;55037;52.354;4.992;2023-02-23T03:17:00;212.13;;;57.60;;
68216;SDS011;55037;52.354;4.992;2023-02-23T03:23:22;175.07;;;52.43;;
68216;SDS011;55037;52.354;4.992;2023-02-23T03:26:25;185.30;;;56.33;;
68216;SDS011;55037;52.354;4.992;2023-02-23T03:32:10;181.05;;;54.92;;
68216;SDS011;55037;52.354;4.992;2023-02-23T03:38:08;173.27;;;56.10;;
68216;SDS011;55037;52.354;4.992;2023-02-23T03:41:00;148.48;;;45.25;;
68216;SDS011;55037;52.354;4.992;2023-02-23T03:43:52;143.07;;;42.77;;
68216;SDS011;55037;52.354;4.992;2023-02-23T03:46:42;132.53;;;42.07;;
68216;SDS011;55037;52.354;4.992;2023-02-23T03:49:33;121.72;;;41.28;;
68216;SDS011;55037;52.354;4.992;2023-02-23T03:52:25;129.05;;;42.20;;
68216;SDS011;55037;52.354;4.992;2023-02-23T03:55:20;120.15;;;39.60;;
68216;SDS011;55037;52.354;4.992;2023-02-23T03:58:10;129.57;;;48.97;;
68216;SDS011;55037;52.354;4.992;2023-02-23T04:01:01;111.82;;;38.45;;
68216;SDS011;55037;52.354;4.992;2023-02-23T04:03:50;115.77;;;40.50;;
68216;SDS011;55037;52.354;4.992;2023-02-23T04:06:38;118.07;;;44.45;;
68216;SDS011;55037;52.354;4.992;2023-02-23T04:09:27;109.28;;;43.83;;
68216;SDS011;55037;52.354;4.992;2023-02-23T04:12:15;103.32;;;41.53;;
68216;SDS011;55037;52.354;4.992;2023-02-23T04:15:10;106.35;;;42.17;;
68216;SDS011;55037;52.354;4.992;2023-02-23T04:17:41;110.70;;;44.17;;
68216;SDS011;55037;52.354;4.992;2023-02-23T04:20:10;98.17;;;36.50;;
68216;SDS011;55037;52.354;4.992;2023-02-23T04:22:39;110.00;;;44.38;;
68216;SDS011;55037;52.354;4.992;2023-02-23T04:25:06;95.15;;;36.30;;
68216;SDS011;55037;52.354;4.992;2023-02-23T04:27:35;95.57;;;38.85;;
68216;SDS011;55037;52.354;4.992;2023-02-23T04:30:02;93.38;;;39.33;;
68216;SDS011;55037;52.354;4.992;2023-02-23T04:32:30;81.73;;;32.27;;
68216;SDS011;55037;52.354;4.992;2023-02-23T04:34:58;87.28;;;33.67;;
68216;SDS011;55037;52.354;4.992;2023-02-23T04:37:25;93.47;;;39.20;;
68216;SDS011;55037;52.354;4.992;2023-02-23T04:39:52;90.90;;;40.30;;
68216;SDS011;55037;52.354;4.992;2023-02-23T04:42:19;82.20;;;36.80;;
68216;SDS011;55037;52.354;4.992;2023-02-23T04:44:47;78.18;;;32.95;;
68216;SDS011;55037;52.354;4.992;2023-02-23T04:47:14;84.93;;;32.63;;
68216;SDS011;55037;52.354;4.992;2023-02-23T04:49:42;72.05;;;30.98;;
68216;SDS011;55037;52.354;4.992;2023-02-23T04:52:10;87.03;;;39.60;;
68216;SDS011;55037;52.354;4.992;2023-02-23T04:54:38;84.43;;;36.72;;
68216;SDS011;55037;52.354;4.992;2023-02-23T04:57:05;80.80;;;35.30;;
68216;SDS011;55037;52.354;4.992;2023-02-23T04:59:33;75.00;;;34.67;;
68216;SDS011;55037;52.354;4.992;2023-02-23T05:02:00;79.70;;;34.72;;
68216;SDS011;55037;52.354;4.992;2023-02-23T05:04:28;78.47;;;34.72;;
68216;SDS011;55037;52.354;4.992;2023-02-23T05:06:56;76.13;;;34.42;;
68216;SDS011;55037;52.354;4.992;2023-02-23T05:09:23;84.65;;;36.83;;
68216;SDS011;55037;52.354;4.992;2023-02-23T05:11:50;71.30;;;29.63;;
68216;SDS011;55037;52.354;4.992;2023-02-23T05:14:18;70.05;;;27.10;;
68216;SDS011;55037;52.354;4.992;2023-02-23T05:16:45;74.55;;;31.08;;
68216;SDS011;55037;52.354;4.992;2023-02-23T05:19:12;76.15;;;31.27;;
68216;SDS011;55037;52.354;4.992;2023-02-23T05:21:39;80.50;;;35.90;;
68216;SDS011;55037;52.354;4.992;2023-02-23T05:24:07;85.80;;;36.60;;
68216;SDS011;55037;52.354;4.992;2023-02-23T05:26:34;82.32;;;36.03;;
68216;SDS011;55037;52.354;4.992;2023-02-23T05:29:02;89.15;;;36.47;;
68216;SDS011;55037;52.354;4.992;2023-02-23T05:31:29;86.00;;;36.70;;
68216;SDS011;55037;52.354;4.992;2023-02-23T05:33:57;99.03;;;39.50;;
68216;SDS011;55037;52.354;4.992;2023-02-23T05:36:24;89.70;;;37.58;;
68216;SDS011;55037;52.354;4.992;2023-02-23T05:38:51;87.30;;;36.88;;
68216;SDS011;55037;52.354;4.992;2023-02-23T05:41:19;76.78;;;31.85;;
68216;SDS011;55037;52.354;4.992;2023-02-23T05:43:49;83.97;;;31.73;;
68216;SDS011;55037;52.354;4.992;2023-02-23T05:46:19;79.05;;;31.95;;
68216;SDS011;55037;52.354;4.992;2023-02-23T05:48:50;77.28;;;31.02;;
68216;SDS011;55037;52.354;4.992;2023-02-23T05:51:20;86.20;;;36.70;;
68216;SDS011;55037;52.354;4.992;2023-02-23T05:53:48;82.18;;;34.75;;
68216;SDS011;55037;52.354;4.992;2023-02-23T05:56:15;87.15;;;37.72;;
68216;SDS011;55037;52.354;4.992;2023-02-23T05:58:46;84.88;;;37.17;;
68216;SDS011;55037;52.354;4.992;2023-02-23T06:01:15;88.78;;;36.97;;
68216;SDS011;55037;52.354;4.992;2023-02-23T06:03:44;88.97;;;36.78;;
68216;SDS011;55037;52.354;4.992;2023-02-23T06:06:12;90.22;;;36.38;;
68216;SDS011;55037;52.354;4.992;2023-02-23T06:08:39;99.60;;;40.42;;
68216;SDS011;55037;52.354;4.992;2023-02-23T06:11:08;87.70;;;34.27;;
68216;SDS011;55037;52.354;4.992;2023-02-23T06:13:35;84.78;;;31.90;;
68216;SDS011;55037;52.354;4.992;2023-02-23T06:16:02;85.28;;;32.10;;
68216;SDS011;55037;52.354;4.992;2023-02-23T06:18:30;89.60;;;33.60;;
68216;SDS011;55037;52.354;4.992;2023-02-23T06:20:58;92.63;;;37.30;;
68216;SDS011;55037;52.354;4.992;2023-02-23T06:23:27;83.72;;;34.20;;
68216;SDS011;55037;52.354;4.992;2023-02-23T06:25:55;94.28;;;37.38;;
68216;SDS011;55037;52.354;4.992;2023-02-23T06:28:22;84.00;;;34.03;;
68216;SDS011;55037;52.354;4.992;2023-02-23T06:30:52;92.68;;;34.33;;
68216;SDS011;55037;52.354;4.992;2023-02-23T06:33:21;89.30;;;34.77;;
68216;SDS011;55037;52.354;4.992;2023-02-23T06:35:48;97.78;;;38.55;;
68216;SDS011;55037;52.354;4.992;2023-02-23T06:38:16;97.93;;;38.78;;
68216;SDS011;55037;52.354;4.992;2023-02-23T06:40:43;96.32;;;35.83;;
68216;SDS011;55037;52.354;4.992;2023-02-23T06:43:10;100.28;;;39.00;;
68216;SDS011;55037;52.354;4.992;2023-02-23T06:45:37;89.80;;;31.73;;
68216;SDS011;55037;52.354;4.992;2023-02-23T06:48:05;90.28;;;34.92;;
68216;SDS011;55037;52.354;4.992;2023-02-23T06:50:32;110.80;;;40.13;;
68216;SDS011;55037;52.354;4.992;2023-02-23T06:53:00;89.60;;;33.45;;
68216;SDS011;55037;52.354;4.992;2023-02-23T06:55:27;86.72;;;33.90;;
68216;SDS011;55037;52.354;4.992;2023-02-23T06:57:54;92.07;;;35.65;;
68216;SDS011;55037;52.354;4.992;2023-02-23T07:00:21;83.25;;;31.40;;
68216;SDS011;55037;52.354;4.992;2023-02-23T07:02:49;91.60;;;36.05;;
68216;SDS011;55037;52.354;4.992;2023-02-23T07:05:16;80.35;;;28.05;;
68216;SDS011;55037;52.354;4.992;2023-02-23T07:07:43;80.68;;;28.13;;
68216;SDS011;55037;52.354;4.992;2023-02-23T07:10:11;82.97;;;32.80;;
68216;SDS011;55037;52.354;4.992;2023-02-23T07:12:38;86.18;;;32.97;;
68216;SDS011;55037;52.354;4.992;2023-02-23T07:15:06;87.57;;;34.17;;
68216;SDS011;55037;52.354;4.992;2023-02-23T07:17:33;88.70;;;34.35;;
68216;SDS011;55037;52.354;4.992;2023-02-23T07:20:01;82.20;;;32.40;;
68216;SDS011;55037;52.354;4.992;2023-02-23T07:22:28;88.85;;;33.15;;
68216;SDS011;55037;52.354;4.992;2023-02-23T07:24:58;82.18;;;31.65;;
68216;SDS011;55037;52.354;4.992;2023-02-23T07:27:25;67.43;;;25.52;;
68216;SDS011;55037;52.354;4.992;2023-02-23T07:29:53;69.15;;;26.92;;
68216;SDS011;55037;52.354;4.992;2023-02-23T07:32:20;78.13;;;29.40;;
68216;SDS011;55037;52.354;4.992;2023-02-23T07:34:47;66.10;;;26.60;;
68216;SDS011;55037;52.354;4.992;2023-02-23T07:37:15;69.75;;;27.85;;
68216;SDS011;55037;52.354;4.992;2023-02-23T07:39:42;59.40;;;23.10;;
68216;SDS011;55037;52.354;4.992;2023-02-23T07:42:10;59.47;;;22.88;;
68216;SDS011;55037;52.354;4.992;2023-02-23T07:44:37;63.50;;;24.88;;
68216;SDS011;55037;52.354;4.992;2023-02-23T07:47:05;59.80;;;22.63;;
68216;SDS011;55037;52.354;4.992;2023-02-23T07:49:32;58.22;;;22.05;;
68216;SDS011;55037;52.354;4.992;2023-02-23T07:52:00;59.67;;;22.40;;
68216;SDS011;55037;52.354;4.992;2023-02-23T07:54:27;55.65;;;21.90;;
68216;SDS011;55037;52.354;4.992;2023-02-23T07:56:54;53.72;;;21.10;;
68216;SDS011;55037;52.354;4.992;2023-02-23T07:59:22;56.63;;;23.30;;
68216;SDS011;55037;52.354;4.992;2023-02-23T08:01:49;53.15;;;22.20;;
68216;SDS011;55037;52.354;4.992;2023-02-23T08:04:17;51.47;;;23.05;;
68216;SDS011;55037;52.354;4.992;2023-02-23T08:06:45;53.83;;;21.63;;
68216;SDS011;55037;52.354;4.992;2023-02-23T08:09:12;47.50;;;18.90;;
68216;SDS011;55037;52.354;4.992;2023-02-23T08:11:39;47.63;;;19.77;;
68216;SDS011;55037;52.354;4.992;2023-02-23T08:14:07;47.25;;;22.02;;
68216;SDS011;55037;52.354;4.992;2023-02-23T08:16:36;51.80;;;21.27;;
68216;SDS011;55037;52.354;4.992;2023-02-23T08:19:03;53.10;;;23.02;;
68216;SDS011;55037;52.354;4.992;2023-02-23T08:21:30;44.03;;;19.35;;
68216;SDS011;55037;52.354;4.992;2023-02-23T08:23:58;42.37;;;18.17;;
68216;SDS011;55037;52.354;4.992;2023-02-23T08:26:25;43.47;;;18.60;;
68216;SDS011;55037;52.354;4.992;2023-02-23T08:28:53;46.22;;;19.85;;
68216;SDS011;55037;52.354;4.992;2023-02-23T08:31:21;43.53;;;17.67;;
68216;SDS011;55037;52.354;4.992;2023-02-23T08:33:50;45.33;;;17.97;;
68216;SDS011;55037;52.354;4.992;2023-02-23T08:36:18;47.10;;;18.75;;
68216;SDS011;55037;52.354;4.992;2023-02-23T08:38:48;43.53;;;18.23;;
68216;SDS011;55037;52.354;4.992;2023-02-23T08:41:16;45.05;;;19.27;;
68216;SDS011;55037;52.354;4.992;2023-02-23T08:43:44;49.53;;;19.10;;
68216;SDS011;55037;52.354;4.992;2023-02-23T08:46:11;43.00;;;18.20;;
68216;SDS011;55037;52.354;4.992;2023-02-23T08:48:39;43.85;;;18.42;;
68216;SDS011;55037;52.354;4.992;2023-02-23T08:51:06;38.80;;;16.60;;
68216;SDS011;55037;52.354;4.992;2023-02-23T08:53:34;38.03;;;15.20;;
68216;SDS011;55037;52.354;4.992;2023-02-23T08:56:02;40.67;;;17.67;;
68216;SDS011;55037;52.354;4.992;2023-02-23T08:58:32;42.37;;;17.40;;
68216;SDS011;55037;52.354;4.992;2023-02-23T09:01:00;40.03;;;17.55;;
68216;SDS011;55037;52.354;4.992;2023-02-23T09:03:28;40.70;;;17.40;;
68216;SDS011;55037;52.354;4.992;2023-02-23T09:05:57;41.83;;;17.20;;
68216;SDS011;55037;52.354;4.992;2023-02-23T09:08:39;42.13;;;18.02;;
68216;SDS011;55037;52.354;4.992;2023-02-23T09:11:07;44.70;;;18.83;;
68216;SDS011;55037;52.354;4.992;2023-02-23T09:13:34;38.17;;;17.20;;
68216;SDS011;55037;52.354;4.992;2023-02-23T09:16:01;38.87;;;17.33;;
68216;SDS011;55037;52.354;4.992;2023-02-23T09:18:33;38.33;;;17.23;;
68216;SDS011;55037;52.354;4.992;2023-02-23T09:21:05;38.40;;;18.52;;
68216;SDS011;55037;52.354;4.992;2023-02-23T09:23:34;39.67;;;17.83;;
68216;SDS011;55037;52.354;4.992;2023-02-23T09:26:03;34.73;;;15.43;;
68216;SDS011;55037;52.354;4.992;2023-02-23T09:28:31;30.85;;;14.57;;
68216;SDS011;55037;52.354;4.992;2023-02-23T09:31:06;35.42;;;15.63;;
68216;SDS011;55037;52.354;4.992;2023-02-23T09:33:36;31.77;;;14.70;;
68216;SDS011;55037;52.354;4.992;2023-02-23T09:36:06;27.60;;;12.60;;
68216;SDS011;55037;52.354;4.992;2023-02-23T09:38:37;28.00;;;13.32;;
68216;SDS011;55037;52.354;4.992;2023-02-23T09:41:08;27.27;;;12.98;;
68216;SDS011;55037;52.354;4.992;2023-02-23T09:43:56;27.10;;;11.93;;
68216;SDS011;55037;52.354;4.992;2023-02-23T09:46:32;27.95;;;12.25;;
68216;SDS011;55037;52.354;4.992;2023-02-23T09:49:04;32.35;;;14.63;;
68216;SDS011;55037;52.354;4.992;2023-02-23T09:51:39;31.17;;;14.57;;
68216;SDS011;55037;52.354;4.992;2023-02-23T09:54:12;32.85;;;14.85;;
68216;SDS011;55037;52.354;4.992;2023-02-23T09:56:42;33.22;;;14.38;;
68216;SDS011;55037;52.354;4.992;2023-02-23T09:59:16;30.13;;;14.23;;
68216;SDS011;55037;52.354;4.992;2023-02-23T10:01:51;31.00;;;13.60;;
68216;SDS011;55037;52.354;4.992;2023-02-23T10:04:31;38.13;;;16.88;;
68216;SDS011;55037;52.354;4.992;2023-02-23T10:13:58;43.80;;;18.53;;
68216;SDS011;55037;52.354;4.992;2023-02-23T10:16:40;44.22;;;18.33;;
68216;SDS011;55037;52.354;4.992;2023-02-23T10:18:57;45.92;;;18.42;;
68216;SDS011;55037;52.354;4.992;2023-02-23T10:21:37;42.47;;;18.63;;
68216;SDS011;55037;52.354;4.992;2023-02-23T10:24:09;45.00;;;19.83;;
68216;SDS011;55037;52.354;4.992;2023-02-23T10:26:50;46.80;;;19.70;;
68216;SDS011;55037;52.354;4.992;2023-02-23T10:29:25;50.90;;;21.45;;
68216;SDS011;55037;52.354;4.992;2023-02-23T10:34:51;44.50;;;20.27;;
68216;SDS011;55037;52.354;4.992;2023-02-23T10:37:22;46.08;;;21.25;;
68216;SDS011;55037;52.354;4.992;2023-02-23T10:39:51;49.88;;;21.95;;
68216;SDS011;55037;52.354;4.992;2023-02-23T10:42:20;49.67;;;23.20;;
68216;SDS011;55037;52.354;4.992;2023-02-23T10:44:50;40.00;;;20.38;;
68216;SDS011;55037;52.354;4.992;2023-02-23T10:47:21;40.95;;;19.48;;
68216;SDS011;55037;52.354;4.992;2023-02-23T10:50:00;38.50;;;19.42;;
68216;SDS011;55037;52.354;4.992;2023-02-23T10:55:19;35.00;;;17.40;;
68216;SDS011;55037;52.354;4.992;2023-02-23T10:58:11;39.27;;;19.07;;
68216;SDS011;55037;52.354;4.992;2023-02-23T11:00:54;41.38;;;19.48;;
68216;SDS011;55037;52.354;4.992;2023-02-23T11:03:29;38.27;;;19.43;;
68216;SDS011;55037;52.354;4.992;2023-02-23T11:06:25;40.83;;;20.10;;
68216;SDS011;55037;52.354;4.992;2023-02-23T11:08:54;41.58;;;20.42;;
68216;SDS011;55037;52.354;4.992;2023-02-23T11:11:23;41.58;;;21.10;;
68216;SDS011;55037;52.354;4.992;2023-02-23T11:13:55;43.92;;;21.77;;
68216;SDS011;55037;52.354;4.992;2023-02-23T11:16:28;39.60;;;20.23;;
68216;SDS011;55037;52.354;4.992;2023-02-23T11:19:03;39.85;;;20.23;;
68216;SDS011;55037;52.354;4.992;2023-02-23T11:21:34;39.60;;;19.23;;
68216;SDS011;55037;52.354;4.992;2023-02-23T11:24:12;33.17;;;16.53;;
68216;SDS011;55037;52.354;4.992;2023-02-23T11:26:50;39.08;;;18.27;;
68216;SDS011;55037;52.354;4.992;2023-02-23T11:29:28;39.45;;;19.83;;
68216;SDS011;55037;52.354;4.992;2023-02-23T11:31:59;42.08;;;21.02;;
68216;SDS011;55037;52.354;4.992;2023-02-23T11:34:36;36.22;;;19.05;;
68216;SDS011;55037;52.354;4.992;2023-02-23T11:37:09;40.08;;;19.38;;
68216;SDS011;55037;52.354;4.992;2023-02-23T11:39:58;42.05;;;20.92;;
68216;SDS011;55037;52.354;4.992;2023-02-23T11:42:28;41.67;;;20.25;;
68216;SDS011;55037;52.354;4.992;2023-02-23T11:45:06;41.20;;;20.20;;
68216;SDS011;55037;52.354;4.992;2023-02-23T11:47:48;39.50;;;18.45;;
68216;SDS011;55037;52.354;4.992;2023-02-23T11:50:26;35.15;;;17.40;;
68216;SDS011;55037;52.354;4.992;2023-02-23T11:52:58;29.70;;;15.03;;
68216;SDS011;55037;52.354;4.992;2023-02-23T11:55:43;32.88;;;15.60;;
68216;SDS011;55037;52.354;4.992;2023-02-23T11:58:28;34.13;;;14.77;;
68216;SDS011;55037;52.354;4.992;2023-02-23T12:01:17;29.55;;;14.30;;
68216;SDS011;55037;52.354;4.992;2023-02-23T12:04:00;30.25;;;14.93;;
68216;SDS011;55037;52.354;4.992;2023-02-23T12:11:48;29.80;;;14.52;;
68216;SDS011;55037;52.354;4.992;2023-02-23T12:14:30;31.73;;;14.80;;
68216;SDS011;55037;52.354;4.992;2023-02-23T12:19:57;36.55;;;16.73;;
68216;SDS011;55037;52.354;4.992;2023-02-23T12:22:38;35.85;;;16.65;;
68216;SDS011;55037;52.354;4.992;2023-02-23T12:25:10;36.78;;;17.35;;
68216;SDS011;55037;52.354;4.992;2023-02-23T12:28:00;33.53;;;15.10;;
68216;SDS011;55037;52.354;4.992;2023-02-23T12:30:52;36.05;;;16.77;;
68216;SDS011;55037;52.354;4.992;2023-02-23T12:33:33;42.08;;;17.45;;
68216;SDS011;55037;52.354;4.992;2023-02-23T12:41:38;47.42;;;20.00;;
68216;SDS011;55037;52.354;4.992;2023-02-23T12:44:20;46.38;;;18.40;;
68216;SDS011;55037;52.354;4.992;2023-02-23T12:47:38;49.75;;;20.27;;
68216;SDS011;55037;52.354;4.992;2023-02-23T12:50:12;40.40;;;16.30;;
68216;SDS011;55037;52.354;4.992;2023-02-23T12:52:52;32.53;;;13.53;;
68216;SDS011;55037;52.354;4.992;2023-02-23T12:55:32;33.53;;;14.15;;
68216;SDS011;55037;52.354;4.992;2023-02-23T12:58:13;33.08;;;13.07;;
68216;SDS011;55037;52.354;4.992;2023-02-23T13:01:09;34.65;;;13.40;;
68216;SDS011;55037;52.354;4.992;2023-02-23T13:07:04;37.53;;;13.70;;
68216;SDS011;55037;52.354;4.992;2023-02-23T13:15:44;25.92;;;11.80;;
68216;SDS011;55037;52.354;4.992;2023-02-23T13:18:17;26.23;;;11.75;;
68216;SDS011;55037;52.354;4.992;2023-02-23T13:20:46;25.08;;;11.10;;
68216;SDS011;55037;52.354;4.992;2023-02-23T13:26:04;25.17;;;11.63;;
68216;SDS011;55037;52.354;4.992;2023-02-23T13:31:37;24.00;;;11.70;;
68216;SDS011;55037;52.354;4.992;2023-02-23T13:34:09;24.67;;;12.37;;
68216;SDS011;55037;52.354;4.992;2023-02-23T13:36:46;27.13;;;12.82;;
68216;SDS011;55037;52.354;4.992;2023-02-23T13:44:56;29.45;;;14.02;;
68216;SDS011;55037;52.354;4.992;2023-02-23T13:50:30;32.53;;;15.30;;
68216;SDS011;55037;52.354;4.992;2023-02-23T13:53:14;32.45;;;14.82;;
68216;SDS011;55037;52.354;4.992;2023-02-23T13:56:09;35.00;;;15.30;;
68216;SDS011;55037;52.354;4.992;2023-02-23T13:58:46;35.28;;;15.90;;
68216;SDS011;55037;52.354;4.992;2023-02-23T14:01:21;35.30;;;15.75;;
68216;SDS011;55037;52.354;4.992;2023-02-23T14:03:56;40.20;;;16.70;;
68216;SDS011;55037;52.354;4.992;2023-02-23T14:06:27;20.35;;;7.63;;
68216;SDS011;55037;52.354;4.992;2023-02-23T14:08:57;12.95;;;3.10;;
68216;SDS011;55037;52.354;4.992;2023-02-23T14:11:45;14.13;;;3.05;;
68216;SDS011;55037;52.354;4.992;2023-02-23T14:31:30;26.38;;;4.05;;
68216;SDS011;55037;52.354;4.992;2023-02-23T14:33:58;23.63;;;3.72;;
68216;SDS011;55037;52.354;4.992;2023-02-23T14:36:27;21.85;;;3.97;;
68216;SDS011;55037;52.354;4.992;2023-02-23T14:38:59;20.23;;;3.73;;
68216;SDS011;55037;52.354;4.992;2023-02-23T14:46:59;24.60;;;4.00;;
68216;SDS011;55037;52.354;4.992;2023-02-23T14:49:30;23.83;;;4.28;;
68216;SDS011;55037;52.354;4.992;2023-02-23T14:52:05;26.73;;;4.38;;
68216;SDS011;55037;52.354;4.992;2023-02-23T14:54:35;27.30;;;4.40;;
68216;SDS011;55037;52.354;4.992;2023-02-23T14:57:15;31.13;;;5.15;;
68216;SDS011;55037;52.354;4.992;2023-02-23T14:59:50;40.28;;;5.38;;
68216;SDS011;55037;52.354;4.992;2023-02-23T15:02:25;32.55;;;5.45;;
68216;SDS011;55037;52.354;4.992;2023-02-23T15:04:54;28.20;;;4.53;;
68216;SDS011;55037;52.354;4.992;2023-02-23T15:07:33;28.58;;;4.47;;
68216;SDS011;55037;52.354;4.992;2023-02-23T15:10:11;27.13;;;4.32;;
68216;SDS011;55037;52.354;4.992;2023-02-23T15:12:44;39.22;;;5.30;;
68216;SDS011;55037;52.354;4.992;2023-02-23T15:15:16;38.42;;;5.32;;
68216;SDS011;55037;52.354;4.992;2023-02-23T15:17:47;36.55;;;4.80;;
68216;SDS011;55037;52.354;4.992;2023-02-23T15:20:18;42.33;;;5.35;;
68216;SDS011;55037;52.354;4.992;2023-02-23T15:22:54;32.38;;;4.68;;
68216;SDS011;55037;52.354;4.992;2023-02-23T15:25:31;46.75;;;5.55;;
68216;SDS011;55037;52.354;4.992;2023-02-23T15:28:09;41.55;;;5.75;;
68216;SDS011;55037;52.354;4.992;2023-02-23T15:30:47;41.23;;;5.17;;
68216;SDS011;55037;52.354;4.992;2023-02-23T15:33:19;42.33;;;5.53;;
68216;SDS011;55037;52.354;4.992;2023-02-23T15:35:51;40.65;;;5.18;;
68216;SDS011;55037;52.354;4.992;2023-02-23T15:38:28;37.38;;;5.05;;
68216;SDS011;55037;52.354;4.992;2023-02-23T15:41:21;43.57;;;4.87;;
68216;SDS011;55037;52.354;4.992;2023-02-23T15:44:13;42.20;;;4.93;;
68216;SDS011;55037;52.354;4.992;2023-02-23T15:46:50;41.28;;;4.80;;
68216;SDS011;55037;52.354;4.992;2023-02-23T15:49:26;35.53;;;5.10;;
68216;SDS011;55037;52.354;4.992;2023-02-23T15:52:01;36.28;;;4.75;;
68216;SDS011;55037;52.354;4.992;2023-02-23T15:54:33;35.42;;;5.18;;
68216;SDS011;55037;52.354;4.992;2023-02-23T15:57:17;35.27;;;4.73;;
68216;SDS011;55037;52.354;4.992;2023-02-23T15:59:56;34.88;;;5.07;;
68216;SDS011;55037;52.354;4.992;2023-02-23T16:02:24;40.58;;;5.40;;
68216;SDS011;55037;52.354;4.992;2023-02-23T16:04:52;37.57;;;4.43;;
68216;SDS011;55037;52.354;4.992;2023-02-23T16:07:20;36.03;;;4.10;;
68216;SDS011;55037;52.354;4.992;2023-02-23T16:12:19;31.15;;;4.30;;
68216;SDS011;55037;52.354;4.992;2023-02-23T16:14:50;34.57;;;4.20;;
68216;SDS011;55037;52.354;4.992;2023-02-23T16:17:28;33.75;;;4.72;;
68216;SDS011;55037;52.354;4.992;2023-02-23T16:20:06;33.55;;;4.25;;
68216;SDS011;55037;52.354;4.992;2023-02-23T16:22:42;37.65;;;4.82;;
68216;SDS011;55037;52.354;4.992;2023-02-23T16:25:13;31.45;;;4.47;;
68216;SDS011;55037;52.354;4.992;2023-02-23T16:27:42;38.38;;;4.47;;
68216;SDS011;55037;52.354;4.992;2023-02-23T16:30:18;30.58;;;4.25;;
68216;SDS011;55037;52.354;4.992;2023-02-23T16:35:36;33.63;;;4.65;;
68216;SDS011;55037;52.354;4.992;2023-02-23T16:38:11;34.03;;;4.18;;
68216;SDS011;55037;52.354;4.992;2023-02-23T16:40:40;31.50;;;4.20;;
68216;SDS011;55037;52.354;4.992;2023-02-23T16:43:08;30.02;;;4.13;;
68216;SDS011;55037;52.354;4.992;2023-02-23T16:45:36;30.38;;;4.38;;
68216;SDS011;55037;52.354;4.992;2023-02-23T16:48:10;32.13;;;4.22;;
68216;SDS011;55037;52.354;4.992;2023-02-23T16:50:42;28.47;;;4.13;;